createdAt,value
2018-10-06T10:33:16.995Z,5.60
2018-10-06T10:35:45.543Z,5.97
2018-10-06T10:38:25.307Z,6.00
2018-10-06T10:40:53.855Z,8.93
2018-10-06T10:43:22.412Z,6.23
2018-10-06T10:45:50.983Z,6.97
2018-10-06T10:48:19.556Z,5.53
2018-10-06T10:50:48.132Z,5.57
2018-10-06T10:53:16.874Z,6.00
2018-10-06T10:55:45.473Z,5.83
2018-10-06T13:06:10.765Z,5.70
2018-10-06T13:08:39.289Z,6.30
2018-10-06T13:11:07.832Z,6.37
2018-10-06T13:13:36.381Z,6.87
2018-10-06T13:16:04.920Z,5.63
2018-10-06T13:18:33.520Z,5.73
2018-10-06T13:21:02.046Z,6.90
2018-10-06T13:23:30.584Z,6.90
2018-10-06T13:25:59.156Z,7.57
2018-10-06T13:28:27.687Z,7.67
2018-10-06T13:30:56.236Z,7.17
2018-10-06T13:33:24.812Z,6.37
2018-10-06T13:35:53.348Z,8.17
2018-10-06T13:38:21.897Z,7.63
2018-10-06T13:40:50.443Z,7.50
2018-10-06T13:43:18.998Z,7.43
2018-10-06T13:45:47.544Z,6.80
2018-10-06T13:48:16.092Z,6.83
2018-10-06T13:50:44.615Z,7.20
2018-10-06T13:53:13.164Z,7.07
2018-10-06T13:55:41.723Z,7.83
2018-10-06T13:58:10.339Z,8.30
2018-10-06T14:00:38.871Z,8.10
2018-10-06T14:03:08.229Z,7.60
2018-10-06T14:05:36.790Z,9.57
2018-10-06T14:08:05.463Z,8.20
2018-10-06T14:10:34.023Z,8.13
2018-10-06T14:13:02.574Z,7.50
2018-10-06T14:15:31.108Z,7.80
2018-10-06T14:18:02.509Z,7.00
2018-10-06T14:20:31.045Z,7.20
2018-10-06T14:23:14.688Z,9.00
2018-10-06T14:25:43.248Z,8.10
2018-10-06T14:31:02.035Z,8.37
2018-10-06T14:33:30.581Z,8.60
2018-10-06T14:35:59.124Z,7.63
2018-10-06T14:38:27.676Z,7.40
2018-10-06T14:40:56.665Z,8.27
2018-10-06T14:43:25.215Z,8.50
2018-10-06T14:45:53.772Z,7.67
2018-10-06T14:48:22.312Z,7.87
2018-10-06T14:50:51.004Z,7.60
2018-10-06T14:53:19.636Z,7.93
2018-10-06T14:55:48.171Z,7.20
2018-10-06T14:58:16.714Z,7.00
2018-10-06T15:00:45.245Z,7.97
2018-10-06T15:03:13.800Z,8.20
2018-10-06T15:05:42.343Z,9.30
2018-10-06T15:08:10.900Z,9.07
2018-10-06T15:10:39.436Z,15.30
2018-10-06T15:13:08.008Z,15.90
2018-10-06T15:15:37.352Z,10.73
2018-10-06T15:23:47.183Z,9.30
2018-10-06T15:26:15.761Z,9.30
2018-10-06T15:28:44.324Z,9.47
2018-10-06T15:31:12.876Z,9.37
2018-10-06T15:33:41.433Z,10.23
2018-10-06T15:36:09.982Z,13.43
2018-10-06T15:38:39.293Z,9.37
2018-10-06T15:41:07.819Z,9.97
2018-10-06T15:43:39.300Z,8.53
2018-10-06T15:46:08.102Z,8.27
2018-10-06T15:48:36.671Z,8.10
2018-10-06T15:51:05.287Z,8.10
2018-10-06T15:53:33.780Z,8.70
2018-10-06T15:56:02.607Z,7.90
2018-10-06T15:58:31.148Z,8.80
2018-10-06T16:00:59.706Z,8.83
2018-10-06T16:03:28.332Z,10.70
2018-10-06T16:05:56.939Z,11.57
2018-10-06T16:08:25.525Z,9.07
2018-10-06T16:10:54.072Z,8.50
2018-10-06T16:13:22.638Z,18.37
2018-10-06T16:15:51.203Z,20.60
2018-10-06T19:39:36.606Z,13.23
2018-10-06T19:42:05.154Z,11.40
2018-10-06T19:44:33.694Z,11.60
2018-10-06T19:47:02.270Z,10.40
2018-10-06T19:49:30.861Z,10.83
2018-10-06T19:51:59.431Z,9.97
2018-10-06T19:54:28.014Z,10.10
2018-10-06T19:56:56.560Z,10.73
2018-10-06T19:59:25.124Z,10.80
2018-10-06T20:01:53.699Z,10.30
2018-10-06T20:04:22.340Z,10.03
2018-10-06T20:06:50.876Z,11.47
2018-10-06T20:09:19.435Z,9.60
2018-10-06T20:11:48.040Z,10.87
2018-10-06T20:14:16.563Z,9.13
2018-10-06T20:16:45.152Z,9.47
2018-10-06T20:19:13.759Z,8.47
2018-10-06T20:21:42.287Z,10.30
2018-10-06T20:24:10.830Z,10.50
2018-10-06T20:26:39.392Z,10.33
2018-10-06T20:29:07.943Z,9.27
2018-10-06T20:31:36.473Z,10.10
2018-10-06T20:34:05.064Z,9.77
2018-10-06T20:36:33.603Z,10.40
2018-10-06T20:39:02.171Z,9.03
2018-10-06T20:41:30.740Z,10.37
2018-10-06T20:43:59.278Z,10.27
2018-10-06T20:46:27.899Z,10.23
2018-10-06T20:48:56.432Z,10.53
2018-10-06T20:51:24.991Z,10.90
2018-10-06T20:53:53.546Z,11.07
2018-10-06T20:56:22.124Z,10.33
2018-10-06T20:58:50.653Z,9.80
2018-10-06T21:01:19.212Z,8.27
2018-10-06T21:03:47.805Z,10.17
2018-10-06T21:06:16.353Z,8.00
2018-10-06T21:08:44.952Z,10.00
2018-10-06T21:11:13.627Z,10.60
2018-10-06T21:13:42.256Z,9.43
2018-10-06T21:16:10.807Z,9.47
2018-10-06T21:18:39.398Z,9.60
2018-10-06T21:21:08.093Z,10.27
2018-10-06T21:23:36.664Z,9.57
2018-10-06T21:26:05.272Z,9.10
2018-10-06T21:28:33.865Z,11.00
2018-10-06T21:31:02.421Z,10.13
2018-10-06T21:33:30.976Z,9.53
2018-10-06T21:35:59.535Z,9.40
2018-10-06T21:38:28.124Z,9.77
2018-10-06T21:40:56.703Z,10.43
2018-10-06T21:43:25.269Z,10.00
2018-10-06T21:45:53.800Z,9.77
2018-10-06T21:48:22.347Z,9.77
2018-10-06T21:50:50.900Z,9.73
2018-10-06T21:53:19.477Z,10.33
2018-10-06T21:55:48.067Z,9.37
2018-10-06T21:58:16.600Z,9.80
2018-10-06T22:00:48.819Z,11.50
2018-10-06T22:03:17.492Z,10.40
2018-10-06T22:05:46.069Z,10.00
2018-10-06T22:08:14.628Z,8.97
2018-10-06T22:10:43.219Z,10.03
2018-10-06T22:13:11.813Z,9.80
2018-10-06T22:15:40.385Z,10.23
2018-10-06T23:28:17.732Z,10.43
2018-10-06T23:30:46.322Z,8.83
2018-10-06T23:33:14.885Z,8.97
2018-10-06T23:35:43.444Z,9.20
2018-10-06T23:38:11.997Z,9.00
2018-10-06T23:40:40.564Z,8.13
2018-10-06T23:43:09.257Z,8.63
2018-10-06T23:45:37.812Z,8.23
2018-10-06T23:48:06.537Z,8.10
2018-10-06T23:50:35.217Z,8.77
2018-10-06T23:53:03.832Z,8.80
2018-10-06T23:55:32.382Z,7.70
2018-10-06T23:58:01.031Z,7.40
